TimeCST,TemperatureF,Dew PointF,Humidity,Sea Level PressureIn,VisibilityMPH,Wind Direction,Wind SpeedMPH,Gust SpeedMPH,PrecipitationIn,Events,Conditions,WindDirDegrees,DateUTC
12:15 AM,35.6,33.8,93,29.88,4.0,SSE,16.1,-,N/A,,Overcast,160,2013-01-28 06:15:00
12:35 AM,35.6,33.8,93,29.87,5.0,South,18.4,21.9,N/A,,Overcast,170,2013-01-28 06:35:00
12:55 AM,35.6,33.8,93,29.86,5.0,South,16.1,-,N/A,,Overcast,170,2013-01-28 06:55:00
1:15 AM,35.6,33.8,93,29.85,4.0,SSE,15.0,-,N/A,,Overcast,160,2013-01-28 07:15:00
1:35 AM,35.6,33.8,93,29.84,3.0,SSE,15.0,-,N/A,,Overcast,160,2013-01-28 07:35:00
1:55 AM,35.6,33.8,93,29.84,4.0,South,13.8,-,0.01,,Overcast,170,2013-01-28 07:55:00
2:15 AM,35.6,33.8,93,29.83,3.0,South,11.5,-,N/A,,Overcast,170,2013-01-28 08:15:00
2:35 AM,35.6,32.0,87,29.82,3.0,South,9.2,-,N/A,,Overcast,170,2013-01-28 08:35:00
2:55 AM,35.6,33.8,93,29.80,3.0,SSE,10.4,-,N/A,,Overcast,160,2013-01-28 08:55:00
3:15 AM,35.6,33.8,93,29.80,3.0,South,10.4,-,N/A,,Overcast,170,2013-01-28 09:15:00
3:35 AM,35.6,33.8,93,29.80,2.5,South,9.2,-,N/A,,Overcast,180,2013-01-28 09:35:00
3:55 AM,35.6,33.8,93,29.79,3.0,South,8.1,-,N/A,,Overcast,180,2013-01-28 09:55:00
4:15 AM,33.8,33.8,100,29.78,3.0,South,6.9,-,0.01,,Overcast,170,2013-01-28 10:15:00
4:35 AM,35.6,33.8,93,29.78,3.0,South,6.9,-,0.01,,Overcast,180,2013-01-28 10:35:00
4:55 AM,35.6,33.8,93,29.77,2.5,South,5.8,-,0.02,,Overcast,190,2013-01-28 10:55:00
5:15 AM,33.8,33.8,100,29.77,3.0,South,3.5,-,N/A,,Overcast,190,2013-01-28 11:15:00
5:35 AM,33.8,33.8,100,29.77,2.5,Calm,Calm,-,0.01,,Overcast,0,2013-01-28 11:35:00
5:55 AM,35.6,33.8,93,29.78,2.0,Calm,Calm,-,0.02,,Overcast,0,2013-01-28 11:55:00
6:15 AM,35.6,33.8,93,29.78,1.8,Calm,Calm,-,N/A,,Overcast,0,2013-01-28 12:15:00
6:35 AM,33.8,33.8,100,29.78,1.8,Calm,Calm,-,N/A,,Overcast,0,2013-01-28 12:35:00
6:55 AM,35.6,33.8,93,29.79,2.5,WSW,4.6,-,N/A,,Mostly Cloudy,250,2013-01-28 12:55:00
7:15 AM,35.6,32.0,87,29.80,1.8,West,5.8,-,N/A,,Overcast,270,2013-01-28 13:15:00
7:35 AM,35.6,32.0,87,29.80,3.0,West,6.9,-,N/A,,Overcast,270,2013-01-28 13:35:00
7:55 AM,35.6,32.0,87,29.81,4.0,West,9.2,-,N/A,,Overcast,270,2013-01-28 13:55:00
8:15 AM,35.6,32.0,87,29.82,4.0,West,9.2,-,N/A,,Overcast,270,2013-01-28 14:15:00
8:35 AM,35.6,32.0,87,29.83,4.0,West,11.5,-,N/A,,Overcast,280,2013-01-28 14:35:00
8:55 AM,35.6,32.0,87,29.82,5.0,West,10.4,-,N/A,,Overcast,280,2013-01-28 14:55:00
9:15 AM,35.6,32.0,87,29.83,5.0,West,11.5,-,N/A,,Overcast,280,2013-01-28 15:15:00
9:35 AM,35.6,30.2,81,29.84,7.0,West,12.7,-,N/A,,Overcast,280,2013-01-28 15:35:00
9:55 AM,35.6,30.2,81,29.85,8.0,West,12.7,18.4,N/A,,Overcast,280,2013-01-28 15:55:00
10:15 AM,35.6,30.2,81,29.87,9.0,West,9.2,16.1,N/A,,Overcast,280,2013-01-28 16:15:00
10:35 AM,35.6,30.2,81,29.87,9.0,West,8.1,-,N/A,,Overcast,280,2013-01-28 16:35:00
10:55 AM,35.6,30.2,81,29.89,10.0,WNW,11.5,16.1,N/A,,Overcast,290,2013-01-28 16:55:00
11:15 AM,35.6,30.2,81,29.89,9.0,WNW,8.1,-,N/A,,Overcast,290,2013-01-28 17:15:00
11:35 AM,35.6,30.2,81,29.89,10.0,West,10.4,-,N/A,,Overcast,280,2013-01-28 17:35:00
11:55 AM,35.6,30.2,81,29.89,10.0,West,9.2,-,N/A,,Overcast,280,2013-01-28 17:55:00
12:35 PM,37.4,30.2,75,29.88,10.0,WNW,11.5,-,N/A,,Mostly Cloudy,300,2013-01-28 18:35:00
12:55 PM,37.4,30.2,75,29.88,10.0,WNW,11.5,-,N/A,,Scattered Clouds,300,2013-01-28 18:55:00
1:15 PM,37.4,30.2,75,29.88,10.0,WNW,9.2,-,N/A,,Mostly Cloudy,300,2013-01-28 19:15:00
1:35 PM,37.4,28.4,70,29.88,10.0,WNW,11.5,-,N/A,,Mostly Cloudy,300,2013-01-28 19:35:00
1:55 PM,37.4,28.4,70,29.89,10.0,WNW,10.4,-,N/A,,Scattered Clouds,300,2013-01-28 19:55:00
2:15 PM,37.4,28.4,70,29.89,10.0,WNW,5.8,-,N/A,,Scattered Clouds,300,2013-01-28 20:15:00
2:35 PM,37.4,28.4,70,29.91,10.0,West,6.9,-,N/A,,Mostly Cloudy,280,2013-01-28 20:35:00
2:55 PM,37.4,28.4,70,29.92,10.0,West,5.8,-,N/A,,Overcast,260,2013-01-28 20:55:00
3:15 PM,37.4,28.4,70,29.92,10.0,West,5.8,-,N/A,,Overcast,280,2013-01-28 21:15:00
3:35 PM,37.4,30.2,75,29.92,10.0,West,3.5,-,N/A,,Overcast,260,2013-01-28 21:35:00
3:55 PM,37.4,30.2,75,29.92,10.0,West,3.5,-,N/A,,Overcast,270,2013-01-28 21:55:00
4:15 PM,35.6,28.4,75,29.93,10.0,WSW,3.5,-,N/A,,Partly Cloudy,250,2013-01-28 22:15:00
4:35 PM,35.6,28.4,75,29.95,10.0,WSW,3.5,-,N/A,,Clear,240,2013-01-28 22:35:00
4:55 PM,35.6,28.4,75,29.96,10.0,SW,4.6,-,N/A,,Clear,230,2013-01-28 22:55:00
5:15 PM,35.6,28.4,75,29.96,10.0,SW,3.5,-,N/A,,Mostly Cloudy,220,2013-01-28 23:15:00
5:35 PM,35.6,28.4,75,29.96,10.0,SW,3.5,-,N/A,,Overcast,230,2013-01-28 23:35:00
5:55 PM,33.8,28.4,81,29.96,10.0,Calm,Calm,-,N/A,,Overcast,0,2013-01-28 23:55:00
6:15 PM,33.8,28.4,81,29.96,10.0,Calm,Calm,-,N/A,,Overcast,0,2013-01-29 00:15:00
6:35 PM,32.0,26.6,80,29.96,9.0,East,3.5,-,N/A,,Mostly Cloudy,100,2013-01-29 00:35:00
6:55 PM,32.0,28.4,87,29.96,10.0,East,3.5,-,N/A,,Mostly Cloudy,80,2013-01-29 00:55:00
7:15 PM,33.8,28.4,81,29.96,10.0,ESE,3.5,-,N/A,,Clear,110,2013-01-29 01:15:00
7:35 PM,30.2,26.6,86,29.95,9.0,Calm,Calm,-,N/A,,Clear,0,2013-01-29 01:35:00
7:55 PM,30.2,28.4,93,29.94,10.0,ENE,4.6,-,N/A,,Clear,60,2013-01-29 01:55:00
8:15 PM,30.2,28.4,93,29.94,10.0,Calm,Calm,-,N/A,,Clear,0,2013-01-29 02:15:00
8:35 PM,30.2,26.6,86,29.94,5.0,Calm,Calm,-,N/A,,Clear,0,2013-01-29 02:35:00
8:55 PM,30.2,28.4,93,29.95,3.0,Calm,Calm,-,N/A,,Clear,0,2013-01-29 02:55:00
9:15 PM,28.4,26.6,93,29.95,2.5,Calm,Calm,-,N/A,,Clear,0,2013-01-29 03:15:00
9:35 PM,28.4,24.8,86,29.94,3.0,Calm,Calm,-,N/A,,Clear,0,2013-01-29 03:35:00
9:55 PM,30.2,28.4,93,29.93,5.0,SE,5.8,-,N/A,,Clear,130,2013-01-29 03:55:00
10:15 PM,30.2,28.4,93,29.92,5.0,ESE,4.6,-,N/A,,Partly Cloudy,120,2013-01-29 04:15:00
10:35 PM,32.0,28.4,87,29.91,6.0,SE,4.6,-,N/A,,Partly Cloudy,130,2013-01-29 04:35:00
10:55 PM,32.0,30.2,93,29.90,7.0,ESE,5.8,-,N/A,,Clear,110,2013-01-29 04:55:00
11:15 PM,32.0,30.2,93,29.87,5.0,East,6.9,-,N/A,,Partly Cloudy,90,2013-01-29 05:15:00
11:35 PM,33.8,28.4,81,29.87,8.0,SE,9.2,-,N/A,,Clear,130,2013-01-29 05:35:00
11:55 PM,33.8,30.2,87,29.86,10.0,SE,11.5,-,N/A,,Mostly Cloudy,130,2013-01-29 05:55:00